METAR AND TAF INFORMATION
METAR FOR KMSY
ADDS - METARS form results

(2224 UTC 24 April 2018)
Data provider http://aviationweather.gov/adds/metars/
 
METAR text: KMSY 242153Z 34010KT 10SM SCT055 27/13 A2994 RMK AO2 SLP142 T02670133
Conditions at: KMSY (NEW ORLEANS/INTL, LA, US) observed 2153 UTC 24 April 2018
Temperature: 26.7°C (80°F)
Dewpoint: 13.3°C (56°F) [RH = 44%]
Pressure (altimeter): 29.94 inches Hg (1014.0 mb)
[Sea-level pressure: 1014.2 mb]
Winds: from the NNW (340 degrees) at 12 MPH (10 knots; 5.2 m/s)
Visibility: 10 or more miles (16+ km)
Ceiling: at least 12,000 feet AGL
Clouds: scattered clouds at 5500 feet AGL
Weather: no significant weather observed at this time

Forecast for: KMSY (NEW ORLEANS/INTL, LA, US)
Text: KMSY 241720Z 2418/2524 31010KT P6SM FEW035
Forecast period: 1800 UTC 24 April 2018 to 0500 UTC 25 April 2018
Forecast type: FROM: standard forecast or significant change
Winds: from the NW (310 degrees) at 12 MPH (10 knots; 5.2 m/s)
Visibility: 6 or more miles (10+ km)
Clouds: few clouds at 3500 feet AGL
Weather: no significant weather forecast for this period
Forecast for: KMSY (NEW ORLEANS/INTL, LA, US)
Text: KMSY 241720Z 2418/2524 31010KT P6SM FEW035
Forecast period: 1800 UTC 24 April 2018 to 0500 UTC 25 April 2018
Forecast type: FROM: standard forecast or significant change
Winds: from the NW (310 degrees) at 12 MPH (10 knots; 5.2 m/s)
Visibility: 6 or more miles (10+ km)
Clouds: few clouds at 3500 feet AGL
Weather: no significant weather forecast for this period
Forecast for: KMSY (NEW ORLEANS/INTL, LA, US)
Text: KMSY 241720Z 2418/2524 31010KT P6SM FEW035
Forecast period: 0500 UTC 25 April 2018 to 0000 UTC 26 April 2018
Forecast type: FROM: standard forecast or significant change
Winds: from the N (350 degrees) at 6 MPH (5 knots; 2.6 m/s)
Visibility: 6 or more miles (10+ km)
Clouds: clear skies
Weather: no significant weather forecast for this period
Forecast for: KMSY (NEW ORLEANS/INTL, LA, US)
Text: KMSY 241720Z 2418/2524 31010KT P6SM FEW035
Forecast period: 0500 UTC 25 April 2018 to 0000 UTC 26 April 2018
Forecast type: FROM: standard forecast or significant change
Winds: from the N (350 degrees) at 6 MPH (5 knots; 2.6 m/s)
Visibility: 6 or more miles (10+ km)
Clouds: clear skies
Weather: no significant weather forecast for this period

 AIRPORT MAP

 RUNWAY INFORMATION
Runway 01 Runway length 7001 ft Runway width 150 ft
Runway elevation 3 ft Runway displaced threshold 0 ft Runway heading 15
Runway 19 Runway length 7001 ft Runway width 150 ft
Runway elevation 0 ft Runway displaced threshold 0 ft Runway heading 195
Runway 06 Runway length 3570 ft Runway width 150 ft
Runway elevation 2 ft Runway displaced threshold 0 ft Runway heading 60
Runway 24 Runway length 3570 ft Runway width 150 ft
Runway elevation 1 ft Runway displaced threshold 0 ft Runway heading 240
Runway 10 Runway length 10104 ft Runway width 150 ft
Runway elevation 4 ft Runway displaced threshold 0 ft Runway heading 106
Runway 28 Runway length 10104 ft Runway width 150 ft
Runway elevation 2 ft Runway displaced threshold 304 ft Runway heading 286

 AIRPORT FREQUENCIES
Type A/D Name NEW ORLEAN Frequency 123.85 MHZ
Type ATIS Name ATIS Frequency 127.55 MHZ
Type CLD Name CLNC DEL Frequency 127.2 MHZ
Type GND Name GND Frequency 121.9 MHZ
Type TWR Name TWR Frequency 119.5 MHZ
Type UNIC Name UNICOM Frequency 122.95 MHZ

 AIRPORT NEAR NAVIGATION AIDS
Type NDB Name Kinte Frequency 338 KHZ



Powered by Virtual Airlines Manager [v2.6.2]